sensor_id;sensor_type;location;lat;lon;timestamp;pressure;altitude;pressure_sealevel;temperature;humidity
10587;BME280;5341;47.606;7.576;2023-07-31T00:01:34;98973.44;;;23.62;43.11
10587;BME280;5341;47.606;7.576;2023-07-31T00:04:03;98963.84;;;23.60;43.00
10587;BME280;5341;47.606;7.576;2023-07-31T00:06:31;98961.38;;;23.58;43.06
10587;BME280;5341;47.606;7.576;2023-07-31T00:08:58;98963.28;;;23.58;43.28
10587;BME280;5341;47.606;7.576;2023-07-31T00:11:25;98962.44;;;23.57;43.02
10587;BME280;5341;47.606;7.576;2023-07-31T00:13:53;98961.59;;;23.57;43.16
10587;BME280;5341;47.606;7.576;2023-07-31T00:16:20;98971.72;;;23.56;43.06
10587;BME280;5341;47.606;7.576;2023-07-31T00:18:48;98969.25;;;23.55;43.07
10587;BME280;5341;47.606;7.576;2023-07-31T00:21:17;98960.50;;;23.53;43.11
10587;BME280;5341;47.606;7.576;2023-07-31T00:23:44;98967.88;;;23.52;43.22
10587;BME280;5341;47.606;7.576;2023-07-31T00:26:11;98973.59;;;23.51;43.29
10587;BME280;5341;47.606;7.576;2023-07-31T00:28:39;98970.03;;;23.50;43.12
10587;BME280;5341;47.606;7.576;2023-07-31T00:31:06;98969.44;;;23.48;43.27
10587;BME280;5341;47.606;7.576;2023-07-31T00:33:34;98966.16;;;23.46;43.35
10587;BME280;5341;47.606;7.576;2023-07-31T00:36:03;98970.81;;;23.46;43.34
10587;BME280;5341;47.606;7.576;2023-07-31T00:38:32;98970.25;;;23.44;43.30
10587;BME280;5341;47.606;7.576;2023-07-31T00:40:59;98964.22;;;23.42;43.27
10587;BME280;5341;47.606;7.576;2023-07-31T00:43:27;98955.47;;;23.39;43.35
10587;BME280;5341;47.606;7.576;2023-07-31T00:45:55;98958.44;;;23.38;43.46
10587;BME280;5341;47.606;7.576;2023-07-31T00:48:23;98956.81;;;23.37;43.47
10587;BME280;5341;47.606;7.576;2023-07-31T00:50:51;98957.06;;;23.35;43.45
10587;BME280;5341;47.606;7.576;2023-07-31T00:53:18;98963.59;;;23.34;43.43
10587;BME280;5341;47.606;7.576;2023-07-31T00:55:47;98954.88;;;23.32;43.49
10587;BME280;5341;47.606;7.576;2023-07-31T00:58:15;98956.78;;;23.32;43.51
10587;BME280;5341;47.606;7.576;2023-07-31T01:00:42;98949.94;;;23.29;43.50
10587;BME280;5341;47.606;7.576;2023-07-31T01:03:10;98952.09;;;23.27;43.62
10587;BME280;5341;47.606;7.576;2023-07-31T01:05:43;98947.72;;;23.26;43.60
10587;BME280;5341;47.606;7.576;2023-07-31T01:08:21;98947.97;;;23.25;43.62
10587;BME280;5341;47.606;7.576;2023-07-31T01:10:56;98947.41;;;23.23;43.70
10587;BME280;5341;47.606;7.576;2023-07-31T01:13:26;98938.66;;;23.21;43.60
10587;BME280;5341;47.606;7.576;2023-07-31T01:15:55;98932.66;;;23.19;43.79
10587;BME280;5341;47.606;7.576;2023-07-31T01:18:22;98932.91;;;23.17;43.72
10587;BME280;5341;47.606;7.576;2023-07-31T01:20:57;98936.72;;;23.16;43.80
10587;BME280;5341;47.606;7.576;2023-07-31T01:26:23;98930.13;;;23.12;43.76
10587;BME280;5341;47.606;7.576;2023-07-31T01:28:58;98933.13;;;23.10;43.82
10587;BME280;5341;47.606;7.576;2023-07-31T01:31:29;98929.81;;;23.08;43.96
10587;BME280;5341;47.606;7.576;2023-07-31T01:34:00;98927.38;;;23.07;44.14
10587;BME280;5341;47.606;7.576;2023-07-31T01:36:28;98928.44;;;23.06;43.96
10587;BME280;5341;47.606;7.576;2023-07-31T01:38:58;98932.53;;;23.03;43.89
10587;BME280;5341;47.606;7.576;2023-07-31T01:41:28;98924.59;;;23.02;43.93
10587;BME280;5341;47.606;7.576;2023-07-31T01:43:55;98921.28;;;23.00;44.12
10587;BME280;5341;47.606;7.576;2023-07-31T01:46:23;98918.00;;;22.98;44.11
10587;BME280;5341;47.606;7.576;2023-07-31T01:48:50;98912.81;;;22.96;43.96
10587;BME280;5341;47.606;7.576;2023-07-31T01:51:18;98909.53;;;22.94;43.96
10587;BME280;5341;47.606;7.576;2023-07-31T01:53:46;98904.31;;;22.93;44.13
10587;BME280;5341;47.606;7.576;2023-07-31T01:56:13;98903.78;;;22.91;44.00
10587;BME280;5341;47.606;7.576;2023-07-31T01:58:42;98911.94;;;22.91;44.13
10587;BME280;5341;47.606;7.576;2023-07-31T02:01:10;98905.91;;;22.89;44.09
10587;BME280;5341;47.606;7.576;2023-07-31T02:03:37;98906.16;;;22.87;44.26
10587;BME280;5341;47.606;7.576;2023-07-31T02:06:05;98905.59;;;22.85;44.17
10587;BME280;5341;47.606;7.576;2023-07-31T02:08:32;98902.31;;;22.83;44.18
10587;BME280;5341;47.606;7.576;2023-07-31T02:11:00;98899.81;;;22.81;44.19
10587;BME280;5341;47.606;7.576;2023-07-31T02:13:28;98895.72;;;22.79;44.17
10587;BME280;5341;47.606;7.576;2023-07-31T02:15:57;98890.50;;;22.77;44.34
10587;BME280;5341;47.606;7.576;2023-07-31T02:18:25;98884.22;;;22.77;44.35
10587;BME280;5341;47.606;7.576;2023-07-31T02:20:53;98882.03;;;22.74;44.37
10587;BME280;5341;47.606;7.576;2023-07-31T02:23:20;98881.19;;;22.73;44.34
10587;BME280;5341;47.606;7.576;2023-07-31T02:25:47;98880.63;;;22.71;44.43
10587;BME280;5341;47.606;7.576;2023-07-31T02:28:15;98877.09;;;22.71;44.39
10587;BME280;5341;47.606;7.576;2023-07-31T02:30:44;98879.25;;;22.69;44.40
10587;BME280;5341;47.606;7.576;2023-07-31T02:33:14;98874.88;;;22.68;44.47
10587;BME280;5341;47.606;7.576;2023-07-31T02:35:42;98875.16;;;22.66;44.54
10587;BME280;5341;47.606;7.576;2023-07-31T02:38:10;98873.47;;;22.65;44.57
10587;BME280;5341;47.606;7.576;2023-07-31T02:40:39;98870.19;;;22.63;44.53
10587;BME280;5341;47.606;7.576;2023-07-31T02:43:06;98868.53;;;22.62;44.44
10587;BME280;5341;47.606;7.576;2023-07-31T02:45:34;98876.16;;;22.60;44.47
10587;BME280;5341;47.606;7.576;2023-07-31T02:48:01;98878.34;;;22.58;44.53
10587;BME280;5341;47.606;7.576;2023-07-31T02:50:31;98882.97;;;22.58;44.68
10587;BME280;5341;47.606;7.576;2023-07-31T02:52:59;98879.69;;;22.56;44.61
10587;BME280;5341;47.606;7.576;2023-07-31T02:55:26;98882.66;;;22.54;44.70
10587;BME280;5341;47.606;7.576;2023-07-31T02:57:53;98882.06;;;22.52;44.71
10587;BME280;5341;47.606;7.576;2023-07-31T03:00:21;98885.88;;;22.51;44.72
10587;BME280;5341;47.606;7.576;2023-07-31T03:02:48;98893.50;;;22.49;44.64
10587;BME280;5341;47.606;7.576;2023-07-31T03:05:16;98882.03;;;22.47;44.76
10587;BME280;5341;47.606;7.576;2023-07-31T03:07:45;98890.47;;;22.45;44.79
10587;BME280;5341;47.606;7.576;2023-07-31T03:10:12;98895.34;;;22.43;44.72
10587;BME280;5341;47.606;7.576;2023-07-31T03:12:40;98892.88;;;22.42;44.85
10587;BME280;5341;47.606;7.576;2023-07-31T03:15:08;98902.13;;;22.41;44.97
10587;BME280;5341;47.606;7.576;2023-07-31T03:17:36;98896.09;;;22.39;44.87
10587;BME280;5341;47.606;7.576;2023-07-31T03:20:04;98898.00;;;22.38;44.81
10587;BME280;5341;47.606;7.576;2023-07-31T03:22:32;98898.25;;;22.37;44.83
10587;BME280;5341;47.606;7.576;2023-07-31T03:25:02;98902.91;;;22.36;44.80
10587;BME280;5341;47.606;7.576;2023-07-31T03:27:29;98900.44;;;22.35;44.98
10587;BME280;5341;47.606;7.576;2023-07-31T03:29:57;98896.88;;;22.34;45.02
10587;BME280;5341;47.606;7.576;2023-07-31T03:32:24;98901.50;;;22.34;45.02
10587;BME280;5341;47.606;7.576;2023-07-31T03:34:52;98912.41;;;22.34;45.17
10587;BME280;5341;47.606;7.576;2023-07-31T03:37:20;98903.66;;;22.32;45.04
10587;BME280;5341;47.606;7.576;2023-07-31T03:39:47;98893.84;;;22.31;45.11
10587;BME280;5341;47.606;7.576;2023-07-31T03:42:17;98890.31;;;22.30;44.94
10587;BME280;5341;47.606;7.576;2023-07-31T03:44:44;98892.44;;;22.28;44.99
10587;BME280;5341;47.606;7.576;2023-07-31T03:47:12;98891.88;;;22.26;45.13
10587;BME280;5341;47.606;7.576;2023-07-31T03:49:39;98894.84;;;22.25;45.19
10587;BME280;5341;47.606;7.576;2023-07-31T03:52:07;98888.84;;;22.22;45.06
10587;BME280;5341;47.606;7.576;2023-07-31T03:54:34;98889.91;;;22.21;45.21
10587;BME280;5341;47.606;7.576;2023-07-31T03:57:02;98881.19;;;22.19;45.32
10587;BME280;5341;47.606;7.576;2023-07-31T03:59:31;98890.19;;;22.20;45.24
10587;BME280;5341;47.606;7.576;2023-07-31T04:01:59;98881.44;;;22.18;45.32
10587;BME280;5341;47.606;7.576;2023-07-31T04:04:26;98886.06;;;22.17;45.31
10587;BME280;5341;47.606;7.576;2023-07-31T04:06:53;98892.00;;;22.14;45.25
10587;BME280;5341;47.606;7.576;2023-07-31T04:09:21;98895.56;;;22.15;45.41
10587;BME280;5341;47.606;7.576;2023-07-31T04:11:48;98903.72;;;22.15;45.19
10587;BME280;5341;47.606;7.576;2023-07-31T04:14:16;98901.00;;;22.15;45.23
10587;BME280;5341;47.606;7.576;2023-07-31T04:16:45;98898.53;;;22.13;45.09
10587;BME280;5341;47.606;7.576;2023-07-31T04:19:12;98902.34;;;22.12;45.31
10587;BME280;5341;47.606;7.576;2023-07-31T04:21:42;98900.69;;;22.11;45.18
10587;BME280;5341;47.606;7.576;2023-07-31T04:24:09;98893.84;;;22.09;45.29
10587;BME280;5341;47.606;7.576;2023-07-31T04:26:37;98891.41;;;22.07;45.36
10587;BME280;5341;47.606;7.576;2023-07-31T04:29:04;98883.69;;;22.04;45.27
10587;BME280;5341;47.606;7.576;2023-07-31T04:31:32;98886.09;;;22.01;45.47
10587;BME280;5341;47.606;7.576;2023-07-31T04:34:01;98889.91;;;22.00;45.41
10587;BME280;5341;47.606;7.576;2023-07-31T04:36:28;98882.81;;;21.99;45.46
10587;BME280;5341;47.606;7.576;2023-07-31T04:38:56;98893.94;;;21.97;45.73
10587;BME280;5341;47.606;7.576;2023-07-31T04:41:23;98889.03;;;21.94;45.58
10587;BME280;5341;47.606;7.576;2023-07-31T04:43:50;98889.50;;;21.91;45.98
10587;BME280;5341;47.606;7.576;2023-07-31T04:46:18;98890.09;;;21.93;45.69
10587;BME280;5341;47.606;7.576;2023-07-31T04:48:45;98885.47;;;21.93;45.98
10587;BME280;5341;47.606;7.576;2023-07-31T04:51:14;98895.53;;;21.93;45.70
10587;BME280;5341;47.606;7.576;2023-07-31T04:53:41;98893.88;;;21.92;45.91
10587;BME280;5341;47.606;7.576;2023-07-31T04:56:09;98889.50;;;21.91;46.20
10587;BME280;5341;47.606;7.576;2023-07-31T04:58:36;98896.59;;;21.92;46.04
10587;BME280;5341;47.606;7.576;2023-07-31T05:01:03;98898.28;;;21.93;46.01
10587;BME280;5341;47.606;7.576;2023-07-31T05:03:31;98890.66;;;21.95;46.27
10587;BME280;5341;47.606;7.576;2023-07-31T05:05:58;98904.28;;;21.95;46.11
10587;BME280;5341;47.606;7.576;2023-07-31T05:08:27;98913.28;;;21.96;46.15
10587;BME280;5341;47.606;7.576;2023-07-31T05:10:55;98908.38;;;21.98;46.08
10587;BME280;5341;47.606;7.576;2023-07-31T05:13:22;98909.22;;;21.98;45.97
10587;BME280;5341;47.606;7.576;2023-07-31T05:15:50;98908.13;;;21.99;45.98
10587;BME280;5341;47.606;7.576;2023-07-31T05:18:17;98914.41;;;22.00;45.96
10587;BME280;5341;47.606;7.576;2023-07-31T05:20:45;98916.88;;;22.01;46.06
10587;BME280;5341;47.606;7.576;2023-07-31T05:23:13;98914.16;;;22.01;45.97
10587;BME280;5341;47.606;7.576;2023-07-31T05:25:41;98902.69;;;21.99;45.97
10587;BME280;5341;47.606;7.576;2023-07-31T05:28:09;98899.16;;;21.99;45.92
10587;BME280;5341;47.606;7.576;2023-07-31T05:30:36;98907.56;;;21.97;45.90
10587;BME280;5341;47.606;7.576;2023-07-31T05:33:04;98914.91;;;21.97;45.99
10587;BME280;5341;47.606;7.576;2023-07-31T05:35:31;98908.09;;;21.94;45.89
10587;BME280;5341;47.606;7.576;2023-07-31T05:37:58;98910.81;;;21.94;46.13
10587;BME280;5341;47.606;7.576;2023-07-31T05:40:26;98908.66;;;21.96;46.07
10587;BME280;5341;47.606;7.576;2023-07-31T05:42:54;98908.13;;;21.99;45.90
10587;BME280;5341;47.606;7.576;2023-07-31T05:45:22;98910.84;;;21.99;46.07
10587;BME280;5341;47.606;7.576;2023-07-31T05:47:51;98908.69;;;22.01;46.11
10587;BME280;5341;47.606;7.576;2023-07-31T05:50:19;98914.97;;;22.02;46.07
10587;BME280;5341;47.606;7.576;2023-07-31T05:52:47;98912.81;;;22.04;45.97
10587;BME280;5341;47.606;7.576;2023-07-31T05:55:15;98917.19;;;22.05;46.00
10587;BME280;5341;47.606;7.576;2023-07-31T05:57:42;98908.00;;;22.06;46.20
10587;BME280;5341;47.606;7.576;2023-07-31T06:00:13;98902.53;;;22.06;45.83
10587;BME280;5341;47.606;7.576;2023-07-31T06:02:41;98888.66;;;22.07;45.97
10587;BME280;5341;47.606;7.576;2023-07-31T06:05:08;98893.03;;;22.08;46.05
10587;BME280;5341;47.606;7.576;2023-07-31T06:07:36;98887.59;;;22.08;46.06
10587;BME280;5341;47.606;7.576;2023-07-31T06:10:04;98887.34;;;22.10;46.05
10587;BME280;5341;47.606;7.576;2023-07-31T06:12:32;98893.59;;;22.10;45.98
10587;BME280;5341;47.606;7.576;2023-07-31T06:15:00;98893.91;;;22.14;46.04
10587;BME280;5341;47.606;7.576;2023-07-31T06:17:29;98898.28;;;22.15;46.05
10587;BME280;5341;47.606;7.576;2023-07-31T06:19:57;98894.47;;;22.16;46.13
10587;BME280;5341;47.606;7.576;2023-07-31T06:22:24;98894.25;;;22.17;46.06
10587;BME280;5341;47.606;7.576;2023-07-31T06:24:52;98884.47;;;22.21;46.06
10587;BME280;5341;47.606;7.576;2023-07-31T06:27:19;98877.94;;;22.22;46.12
10587;BME280;5341;47.606;7.576;2023-07-31T06:29:47;98864.88;;;22.25;46.02
10587;BME280;5341;47.606;7.576;2023-07-31T06:32:15;98860.00;;;22.27;45.97
10587;BME280;5341;47.606;7.576;2023-07-31T06:34:44;98855.13;;;22.29;45.89
10587;BME280;5341;47.606;7.576;2023-07-31T06:37:11;98858.69;;;22.29;46.02
10587;BME280;5341;47.606;7.576;2023-07-31T06:39:38;98852.97;;;22.31;45.91
10587;BME280;5341;47.606;7.576;2023-07-31T06:42:06;98855.72;;;22.31;45.84
10587;BME280;5341;47.606;7.576;2023-07-31T06:44:34;98856.28;;;22.33;45.90
10587;BME280;5341;47.606;7.576;2023-07-31T06:47:01;98857.91;;;22.34;45.89
10587;BME280;5341;47.606;7.576;2023-07-31T06:49:29;98866.66;;;22.36;45.96
10587;BME280;5341;47.606;7.576;2023-07-31T06:51:58;98861.19;;;22.36;45.97
10587;BME280;5341;47.606;7.576;2023-07-31T06:54:26;98855.22;;;22.39;46.08
10587;BME280;5341;47.606;7.576;2023-07-31T06:56:54;98862.31;;;22.40;45.87
10587;BME280;5341;47.606;7.576;2023-07-31T06:59:23;98873.56;;;22.43;46.11
10587;BME280;5341;47.606;7.576;2023-07-31T07:01:50;98877.41;;;22.47;46.07
10587;BME280;5341;47.606;7.576;2023-07-31T07:04:18;98880.69;;;22.49;46.22
10587;BME280;5341;47.606;7.576;2023-07-31T07:06:45;98879.94;;;22.54;46.31
10587;BME280;5341;47.606;7.576;2023-07-31T07:09:14;98878.34;;;22.58;46.06
10587;BME280;5341;47.606;7.576;2023-07-31T07:11:42;98878.09;;;22.65;46.02
10587;BME280;5341;47.606;7.576;2023-07-31T07:14:09;98881.72;;;22.70;46.03
10587;BME280;5341;47.606;7.576;2023-07-31T07:16:37;98884.22;;;22.77;46.16
10587;BME280;5341;47.606;7.576;2023-07-31T07:19:06;98875.63;;;22.85;45.92
10587;BME280;5341;47.606;7.576;2023-07-31T07:21:36;98881.69;;;22.92;45.90
10587;BME280;5341;47.606;7.576;2023-07-31T07:24:04;98884.44;;;22.97;45.97
10587;BME280;5341;47.606;7.576;2023-07-31T07:26:34;98880.72;;;23.08;46.01
10587;BME280;5341;47.606;7.576;2023-07-31T07:29:01;98881.34;;;23.16;45.83
10587;BME280;5341;47.606;7.576;2023-07-31T07:31:30;98873.47;;;23.24;45.99
10587;BME280;5341;47.606;7.576;2023-07-31T07:33:58;98873.25;;;23.31;45.95
10587;BME280;5341;47.606;7.576;2023-07-31T07:36:28;98865.34;;;23.34;45.79
10587;BME280;5341;47.606;7.576;2023-07-31T07:38:58;98867.31;;;23.39;45.64
10587;BME280;5341;47.606;7.576;2023-07-31T07:41:25;98861.88;;;23.44;45.61
10587;BME280;5341;47.606;7.576;2023-07-31T07:43:54;98853.72;;;23.49;45.44
10587;BME280;5341;47.606;7.576;2023-07-31T07:46:22;98853.19;;;23.52;45.25
10587;BME280;5341;47.606;7.576;2023-07-31T07:48:50;98845.31;;;23.56;45.04
10587;BME280;5341;47.606;7.576;2023-07-31T07:51:19;98839.88;;;23.61;44.94
10587;BME280;5341;47.606;7.576;2023-07-31T07:53:46;98831.47;;;23.67;44.76
10587;BME280;5341;47.606;7.576;2023-07-31T07:56:14;98841.63;;;23.77;45.11
10587;BME280;5341;47.606;7.576;2023-07-31T07:58:42;98832.91;;;23.85;45.22
10587;BME280;5341;47.606;7.576;2023-07-31T08:01:10;98833.22;;;23.94;44.92
10587;BME280;5341;47.606;7.576;2023-07-31T08:03:38;98838.44;;;24.06;45.09
10587;BME280;5341;47.606;7.576;2023-07-31T08:06:05;98844.22;;;24.19;44.64
10587;BME280;5341;47.606;7.576;2023-07-31T08:08:35;98835.84;;;24.41;44.69
10587;BME280;5341;47.606;7.576;2023-07-31T08:11:02;98843.00;;;24.63;44.49
10587;BME280;5341;47.606;7.576;2023-07-31T08:13:30;98835.59;;;24.78;44.28
10587;BME280;5341;47.606;7.576;2023-07-31T08:15:57;98841.06;;;24.94;43.92
10587;BME280;5341;47.606;7.576;2023-07-31T08:18:26;98833.16;;;25.07;43.77
10587;BME280;5341;47.606;7.576;2023-07-31T08:20:53;98830.41;;;25.18;43.43
10587;BME280;5341;47.606;7.576;2023-07-31T08:23:21;98823.84;;;25.34;43.03
10587;BME280;5341;47.606;7.576;2023-07-31T08:25:48;98812.00;;;25.54;42.31
10587;BME280;5341;47.606;7.576;2023-07-31T08:28:16;98809.75;;;25.76;41.57
10587;BME280;5341;47.606;7.576;2023-07-31T08:30:44;98809.69;;;25.96;41.57
10587;BME280;5341;47.606;7.576;2023-07-31T08:33:17;98819.75;;;26.11;40.72
10587;BME280;5341;47.606;7.576;2023-07-31T08:35:47;98815.09;;;26.12;40.30
10587;BME280;5341;47.606;7.576;2023-07-31T08:38:14;98824.66;;;26.14;40.64
10587;BME280;5341;47.606;7.576;2023-07-31T08:40:42;98819.41;;;26.23;39.98
10587;BME280;5341;47.606;7.576;2023-07-31T08:43:09;98827.28;;;26.35;38.60
10587;BME280;5341;47.606;7.576;2023-07-31T08:45:37;98821.28;;;26.27;38.59
10587;BME280;5341;47.606;7.576;2023-07-31T08:48:06;98823.78;;;26.24;37.82
10587;BME280;5341;47.606;7.576;2023-07-31T08:50:34;98820.19;;;26.28;37.33
10587;BME280;5341;47.606;7.576;2023-07-31T08:53:03;98819.06;;;26.40;37.71
10587;BME280;5341;47.606;7.576;2023-07-31T08:55:32;98817.34;;;26.54;37.89
10587;BME280;5341;47.606;7.576;2023-07-31T08:58:00;98822.66;;;26.74;37.66
10587;BME280;5341;47.606;7.576;2023-07-31T09:00:32;98814.63;;;26.83;38.04
10587;BME280;5341;47.606;7.576;2023-07-31T09:03:02;98816.22;;;26.89;37.44
10587;BME280;5341;47.606;7.576;2023-07-31T09:05:31;98811.56;;;26.90;37.92
10587;BME280;5341;47.606;7.576;2023-07-31T09:08:00;98808.53;;;26.91;37.28
10587;BME280;5341;47.606;7.576;2023-07-31T09:10:30;98807.13;;;26.94;37.77
10587;BME280;5341;47.606;7.576;2023-07-31T09:12:58;98807.66;;;26.96;37.41
10587;BME280;5341;47.606;7.576;2023-07-31T09:15:27;98805.50;;;26.93;36.80
10587;BME280;5341;47.606;7.576;2023-07-31T09:17:59;98794.84;;;26.86;37.00
10587;BME280;5341;47.606;7.576;2023-07-31T09:20:27;98801.44;;;26.85;37.17
10587;BME280;5341;47.606;7.576;2023-07-31T09:22:55;98814.34;;;26.84;36.37
10587;BME280;5341;47.606;7.576;2023-07-31T09:25:23;98806.16;;;26.79;36.17
10587;BME280;5341;47.606;7.576;2023-07-31T09:27:53;98809.19;;;26.78;36.31
10587;BME280;5341;47.606;7.576;2023-07-31T09:30:21;98804.25;;;26.75;35.90
10587;BME280;5341;47.606;7.576;2023-07-31T09:32:50;98795.72;;;26.81;36.84
10587;BME280;5341;47.606;7.576;2023-07-31T09:35:20;98795.56;;;26.97;36.59
10587;BME280;5341;47.606;7.576;2023-07-31T09:37:52;98783.75;;;27.01;36.29
10587;BME280;5341;47.606;7.576;2023-07-31T09:40:28;98783.13;;;27.09;36.08
10587;BME280;5341;47.606;7.576;2023-07-31T09:43:00;98771.03;;;27.10;36.48
10587;BME280;5341;47.606;7.576;2023-07-31T09:45:28;98766.84;;;27.18;36.35
10587;BME280;5341;47.606;7.576;2023-07-31T09:47:56;98760.25;;;27.43;35.77
10587;BME280;5341;47.606;7.576;2023-07-31T09:50:24;98757.44;;;27.72;35.38
10587;BME280;5341;47.606;7.576;2023-07-31T09:52:52;98742.72;;;27.87;34.66
10587;BME280;5341;47.606;7.576;2023-07-31T09:55:20;98745.16;;;27.88;34.32
10587;BME280;5341;47.606;7.576;2023-07-31T09:57:48;98743.06;;;27.80;34.47
10587;BME280;5341;47.606;7.576;2023-07-31T10:00:19;98730.88;;;27.86;34.72
10587;BME280;5341;47.606;7.576;2023-07-31T10:02:51;98731.25;;;27.98;34.70
10587;BME280;5341;47.606;7.576;2023-07-31T10:05:19;98731.16;;;28.22;34.64
10587;BME280;5341;47.606;7.576;2023-07-31T10:07:53;98718.16;;;28.47;33.98
10587;BME280;5341;47.606;7.576;2023-07-31T10:10:22;98715.19;;;28.76;33.84
10587;BME280;5341;47.606;7.576;2023-07-31T10:12:50;98713.88;;;28.87;34.46
10587;BME280;5341;47.606;7.576;2023-07-31T10:15:20;98707.00;;;29.03;34.33
10587;BME280;5341;47.606;7.576;2023-07-31T10:17:49;98709.97;;;29.34;33.17
10587;BME280;5341;47.606;7.576;2023-07-31T10:20:21;98711.94;;;29.34;33.02
10587;BME280;5341;47.606;7.576;2023-07-31T10:22:49;98716.31;;;29.21;32.66
10587;BME280;5341;47.606;7.576;2023-07-31T10:25:18;98718.22;;;29.07;32.74
10587;BME280;5341;47.606;7.576;2023-07-31T10:27:47;98714.44;;;28.89;33.53
10587;BME280;5341;47.606;7.576;2023-07-31T10:30:18;98710.63;;;28.85;33.19
10587;BME280;5341;47.606;7.576;2023-07-31T10:32:48;98698.50;;;28.86;33.36
10587;BME280;5341;47.606;7.576;2023-07-31T10:35:17;98695.47;;;29.01;34.00
10587;BME280;5341;47.606;7.576;2023-07-31T10:37:45;98693.34;;;29.26;34.16
10587;BME280;5341;47.606;7.576;2023-07-31T10:40:15;98686.34;;;29.47;34.37
10587;BME280;5341;47.606;7.576;2023-07-31T10:42:47;98685.59;;;29.69;33.04
10587;BME280;5341;47.606;7.576;2023-07-31T10:45:24;98691.06;;;29.83;32.41
10587;BME280;5341;47.606;7.576;2023-07-31T10:48:00;98686.97;;;29.80;32.31
10587;BME280;5341;47.606;7.576;2023-07-31T10:50:29;98682.19;;;29.72;32.97
10587;BME280;5341;47.606;7.576;2023-07-31T10:52:59;98689.44;;;29.68;33.09
10587;BME280;5341;47.606;7.576;2023-07-31T10:55:29;98691.09;;;29.69;32.91
10587;BME280;5341;47.606;7.576;2023-07-31T10:58:04;98675.16;;;29.66;32.91
10587;BME280;5341;47.606;7.576;2023-07-31T11:00:33;98669.56;;;29.71;32.80
10587;BME280;5341;47.606;7.576;2023-07-31T11:03:04;98653.19;;;29.74;33.46
10587;BME280;5341;47.606;7.576;2023-07-31T11:05:46;98658.22;;;29.72;33.01
10587;BME280;5341;47.606;7.576;2023-07-31T11:08:16;98657.75;;;29.79;32.01
10587;BME280;5341;47.606;7.576;2023-07-31T11:10:48;98648.31;;;29.71;32.37
10587;BME280;5341;47.606;7.576;2023-07-31T11:13:18;98649.84;;;29.64;32.87
10587;BME280;5341;47.606;7.576;2023-07-31T11:15:46;98657.81;;;29.65;33.00
10587;BME280;5341;47.606;7.576;2023-07-31T11:18:17;98645.25;;;29.73;33.41
10587;BME280;5341;47.606;7.576;2023-07-31T11:20:47;98638.44;;;29.93;32.86
10587;BME280;5341;47.606;7.576;2023-07-31T11:23:17;98638.09;;;30.08;32.38
10587;BME280;5341;47.606;7.576;2023-07-31T11:25:49;98640.09;;;30.16;32.08
10587;BME280;5341;47.606;7.576;2023-07-31T11:28:19;98627.31;;;30.20;32.95
10587;BME280;5341;47.606;7.576;2023-07-31T11:30:48;98628.47;;;30.28;32.31
10587;BME280;5341;47.606;7.576;2023-07-31T11:33:19;98619.78;;;30.34;32.38
10587;BME280;5341;47.606;7.576;2023-07-31T11:35:48;98622.69;;;30.29;31.83
10587;BME280;5341;47.606;7.576;2023-07-31T11:38:22;98630.25;;;30.24;32.74
10587;BME280;5341;47.606;7.576;2023-07-31T11:40:52;98631.78;;;30.39;32.50
10587;BME280;5341;47.606;7.576;2023-07-31T11:43:20;98623.44;;;30.52;33.04
10587;BME280;5341;47.606;7.576;2023-07-31T11:45:52;98625.19;;;30.71;31.92
10587;BME280;5341;47.606;7.576;2023-07-31T11:48:31;98613.78;;;31.03;32.05
10587;BME280;5341;47.606;7.576;2023-07-31T11:51:05;98614.94;;;31.11;31.23
10587;BME280;5341;47.606;7.576;2023-07-31T11:53:42;98609.31;;;31.25;31.51
10587;BME280;5341;47.606;7.576;2023-07-31T11:56:16;98604.47;;;31.30;30.73
10587;BME280;5341;47.606;7.576;2023-07-31T11:58:57;98604.09;;;31.23;30.11
10587;BME280;5341;47.606;7.576;2023-07-31T12:01:40;98598.97;;;30.99;30.92
10587;BME280;5341;47.606;7.576;2023-07-31T12:04:15;98604.28;;;30.78;30.30
10587;BME280;5341;47.606;7.576;2023-07-31T12:06:46;98590.88;;;30.63;30.76
10587;BME280;5341;47.606;7.576;2023-07-31T12:09:23;98588.50;;;30.48;31.01
10587;BME280;5341;47.606;7.576;2023-07-31T12:11:58;98582.13;;;30.39;31.81
10587;BME280;5341;47.606;7.576;2023-07-31T12:14:32;98576.94;;;30.37;32.11
10587;BME280;5341;47.606;7.576;2023-07-31T12:17:07;98567.41;;;30.43;32.31
10587;BME280;5341;47.606;7.576;2023-07-31T12:19:45;98564.81;;;30.47;31.91
10587;BME280;5341;47.606;7.576;2023-07-31T12:24:56;98558.13;;;30.70;31.57
10587;BME280;5341;47.606;7.576;2023-07-31T12:27:34;98551.53;;;30.97;31.80
10587;BME280;5341;47.606;7.576;2023-07-31T12:30:28;98547.88;;;31.19;31.33
10587;BME280;5341;47.606;7.576;2023-07-31T12:32:55;98550.91;;;31.09;31.56
10587;BME280;5341;47.606;7.576;2023-07-31T12:35:24;98551.19;;;30.90;31.00
10587;BME280;5341;47.606;7.576;2023-07-31T12:37:52;98547.59;;;30.81;31.61
10587;BME280;5341;47.606;7.576;2023-07-31T12:40:19;98541.88;;;30.69;31.21
10587;BME280;5341;47.606;7.576;2023-07-31T12:42:47;98548.47;;;30.59;31.12
10587;BME280;5341;47.606;7.576;2023-07-31T12:45:14;98539.94;;;30.69;31.41
10587;BME280;5341;47.606;7.576;2023-07-31T12:47:42;98530.72;;;30.82;30.53
10587;BME280;5341;47.606;7.576;2023-07-31T12:50:09;98534.72;;;30.68;30.20
10587;BME280;5341;47.606;7.576;2023-07-31T12:52:38;98531.38;;;30.48;30.85
10587;BME280;5341;47.606;7.576;2023-07-31T12:55:06;98524.06;;;30.52;30.79
10587;BME280;5341;47.606;7.576;2023-07-31T12:57:34;98517.34;;;30.67;31.49
10587;BME280;5341;47.606;7.576;2023-07-31T13:00:02;98505.66;;;30.70;31.38
10587;BME280;5341;47.606;7.576;2023-07-31T13:02:29;98507.03;;;30.90;30.57
10587;BME280;5341;47.606;7.576;2023-07-31T13:04:57;98501.19;;;31.09;30.75
10587;BME280;5341;47.606;7.576;2023-07-31T13:07:24;98497.66;;;31.34;30.12
10587;BME280;5341;47.606;7.576;2023-07-31T13:09:53;98497.81;;;31.64;30.39
10587;BME280;5341;47.606;7.576;2023-07-31T13:12:21;98498.91;;;31.97;29.38
10587;BME280;5341;47.606;7.576;2023-07-31T13:14:48;98497.66;;;32.33;29.74
10587;BME280;5341;47.606;7.576;2023-07-31T13:17:16;98482.09;;;32.58;29.29
10587;BME280;5341;47.606;7.576;2023-07-31T13:19:43;98485.91;;;32.74;29.53
10587;BME280;5341;47.606;7.576;2023-07-31T13:22:10;98487.44;;;32.92;28.46
10587;BME280;5341;47.606;7.576;2023-07-31T13:24:38;98493.47;;;32.94;28.92